Terminal Aerodrome Forecast
Issued by NWS

Home | Current Version | Previous Version | Text Only | Print | Product List | Glossary On
Versions: 1 2 3 4 5 6 7 8 9 10 11 12 13 14 15 16 17 18 19 20 21
581
FTUS42 KMLB 222334
TAFSFB
TAF
KSFB 222334Z 2300/2324 09005KT P6SM -SHRA SCT010 BKN070 OVC100
      TEMPO 2300/2303 5SM SHRA BR BKN010 OVC050
     FM230300 03005KT P6SM SCT015 BKN090 OVC140
      TEMPO 2303/2306 5SM -SHRA BKN015 OVC050
     FM230600 31005KT P6SM VCSH SCT006 BKN010
      TEMPO 2309/2313 5SM BR OVC004
     FM231400 04007KT P6SM VCSH BKN012
     FM231800 03010KT P6SM SCT030=

USA.gov is the U.S. government's official web portal to all federal, state and local government web resources and services.